Time;durP1;ratioP1;P1;durP2;ratioP2;P2;SDS_P1;SDS_P2;PMS_P1;PMS_P2;Temp;Humidity;BMP_temperature;BMP_pressure;BME280_temperature;BME280_humidity;BME280_pressure;Samples;Min_cycle;Max_cycle;Signal;HPM_P1;HPM_P2
2021/12/26 00:01:18;;;;;;;8.70;2.87;;;-7.20;99.90;;;;;;4775434;29;20118;-91
2021/12/26 00:09:22;;;;;;;8.30;2.53;;;-7.50;99.90;;;;;;4895929;29;20061;-91
2021/12/26 00:34:14;;;;;;;;;;;;;;;;;;;;;
2021/12/26 00:40:39;;;;;;;6.83;2.20;;;-7.60;99.90;;;;;;4858901;29;20052;-92
2021/12/26 00:53:25;;;;;;;7.03;2.30;;;-7.30;99.90;;;;;;4880897;29;20132;-92
2021/12/26 00:58:31;;;;;;;7.47;2.47;;;-7.90;99.90;;;;;;4895960;29;20048;-91
2021/12/26 01:01:32;;;;;;;10.03;2.30;;;-7.70;99.90;;;;;;4897585;29;20051;-91
2021/12/26 01:04:13;;;;;;;;;;;;;;;;;;;;;
2021/12/26 01:07:25;;;;;;;8.47;2.43;;;-6.80;99.90;;;;;;4879772;29;20061;-91
2021/12/26 01:10:59;;;;;;;8.73;2.43;;;-7.80;99.90;;;;;;4949710;23;20060;-91
2021/12/26 01:14:34;;;;;;;7.80;2.60;;;-6.50;99.90;;;;;;4897662;29;20047;-92
2021/12/26 01:17:23;;;;;;;;;;;;;;;;;;;;;
2021/12/26 01:35:27;;;;;;;7.87;2.70;;;-7.80;99.90;;;;;;4801343;29;20085;-93
2021/12/26 01:38:14;;;;;;;8.43;2.23;;;-8.20;99.90;;;;;;4788704;29;20146;-91
2021/12/26 01:41:11;;;;;;;8.73;2.23;;;-6.10;99.90;;;;;;4788190;29;20055;-91
2021/12/26 01:43:52;;;;;;;9.33;2.77;;;-7.70;99.90;;;;;;4741955;29;20060;-91
2021/12/26 01:46:50;;;;;;;7.97;2.67;;;-7.90;99.90;;;;;;4777444;29;20104;-92
2021/12/26 01:52:43;;;;;;;8.47;2.60;;;-7.80;99.90;;;;;;4788981;29;20142;-92
2021/12/26 02:02:27;;;;;;;;;;;;;;;;;;;;;
2021/12/26 02:14:22;;;;;;;8.73;2.85;;;-7.30;99.90;;;;;;4824344;29;20426;-92
2021/12/26 02:17:55;;;;;;;9.07;2.50;;;-7.90;99.90;;;;;;4803553;29;20058;-92
2021/12/26 02:49:51;;;;;;;8.77;2.80;;;-6.60;99.90;;;;;;4880526;29;20057;-90
2021/12/26 03:01:49;;;;;;;8.97;3.00;;;-8.10;99.90;;;;;;5309810;23;20053;-91
2021/12/26 03:15:30;;;;;;;9.85;3.10;;;-8.10;99.90;;;;;;5123382;23;20034;-91
2021/12/26 03:21:33;;;;;;;11.27;3.57;;;-7.20;99.90;;;;;;4845649;29;20050;-92
2021/12/26 03:24:05;;;;;;;8.73;3.20;;;-7.90;99.90;;;;;;4855560;29;20053;-91
2021/12/26 03:26:31;;;;;;;9.30;2.93;;;-8.20;99.90;;;;;;4869695;29;20036;-93
2021/12/26 03:29:36;;;;;;;10.13;3.03;;;-7.40;99.90;;;;;;4881711;29;20053;-92
2021/12/26 03:33:00;;;;;;;8.70;3.00;;;-7.30;99.90;;;;;;4844933;29;20114;-92
2021/12/26 03:36:02;;;;;;;9.03;3.13;;;-6.90;99.90;;;;;;4804175;29;20050;-92
2021/12/26 03:42:14;;;;;;;9.87;3.03;;;-8.20;99.90;;;;;;5059833;23;20521;-92
2021/12/26 03:45:40;;;;;;;8.23;2.90;;;-8.90;99.90;;;;;;4864507;29;20493;-93
2021/12/26 03:51:38;;;;;;;10.63;3.40;;;-8.60;99.90;;;;;;4859628;29;20048;-92
2021/12/26 03:54:07;;;;;;;9.60;3.83;;;-8.10;99.90;;;;;;4847878;29;20536;-92
2021/12/26 03:56:41;;;;;;;10.97;3.20;;;-6.40;99.90;;;;;;4864524;29;20386;-92
2021/12/26 03:59:10;;;;;;;10.07;3.33;;;-8.60;99.90;;;;;;4864624;29;20049;-92
2021/12/26 04:02:11;;;;;;;9.00;3.20;;;-8.60;99.90;;;;;;4880169;29;20087;-92
2021/12/26 04:04:42;;;;;;;9.33;3.40;;;-7.90;99.90;;;;;;4864698;29;20091;-92
2021/12/26 04:07:48;;;;;;;10.13;3.60;;;-6.70;99.90;;;;;;4863934;29;20048;-92
2021/12/26 04:11:31;;;;;;;;;;;;;;;;;;;;;
2021/12/26 04:14:52;;;;;;;9.48;3.45;;;-6.70;99.90;;;;;;4820644;29;20058;-91
2021/12/26 04:17:52;;;;;;;9.47;3.40;;;-8.10;99.90;;;;;;4808199;29;20046;-92
2021/12/26 04:20:24;;;;;;;10.83;3.90;;;-9.20;99.90;;;;;;4808290;29;20110;-92
2021/12/26 04:23:19;;;;;;;10.23;3.73;;;-8.30;99.90;;;;;;4807746;29;20089;-92
2021/12/26 04:25:51;;;;;;;9.43;3.23;;;-7.50;99.90;;;;;;4821866;29;20054;-92
2021/12/26 04:28:22;;;;;;;8.93;3.50;;;-7.00;99.90;;;;;;4843770;29;20049;-92
2021/12/26 04:35:13;;;;;;;;;;;-9.00;99.90;;;;;;4879240;29;20059;-92
2021/12/26 04:50:43;;;;;;;;;;;;;;;;;;;;;
2021/12/26 04:57:11;;;;;;;9.77;3.53;;;-7.00;99.90;;;;;;4853886;29;20034;-93
2021/12/26 05:02:24;;;;;;;10.70;3.73;;;-7.90;99.90;;;;;;5062174;23;20285;31
2021/12/26 05:12:32;;;;;;;9.80;3.67;;;-8.60;99.90;;;;;;4862640;29;20112;-92
2021/12/26 05:15:08;;;;;;;;;;;;;;;;;;;;;
2021/12/26 05:21:59;;;;;;;9.83;3.43;;;-6.70;99.90;;;;;;4870063;23;20048;-93
2021/12/26 05:40:49;;;;;;;9.53;3.40;;;-6.80;99.90;;;;;;5579004;23;20075;-92
2021/12/26 05:43:47;;;;;;;10.43;3.77;;;-8.00;99.90;;;;;;4839101;29;20087;-92
2021/12/26 05:56:53;;;;;;;9.40;3.60;;;-7.50;99.90;;;;;;4892537;23;20113;-92
2021/12/26 05:59:22;;;;;;;9.90;3.30;;;-6.40;99.90;;;;;;4870893;23;20045;-91
2021/12/26 06:06:07;;;;;;;10.47;3.47;;;-7.80;99.90;;;;;;5107624;23;20267;-92
2021/12/26 06:12:21;;;;;;;9.20;3.50;;;-8.20;99.90;;;;;;4847315;29;20053;-90
2021/12/26 06:14:52;;;;;;;11.45;3.83;;;-7.00;99.90;;;;;;4846988;29;20051;-92
2021/12/26 06:17:21;;;;;;;9.93;3.57;;;-7.80;99.90;;;;;;4824741;29;20499;-92
2021/12/26 06:19:53;;;;;;;10.47;4.00;;;-8.20;99.90;;;;;;4809790;29;20062;-92
2021/12/26 06:22:49;;;;;;;10.40;3.80;;;-6.70;99.90;;;;;;4824830;29;20153;-92
2021/12/26 06:25:24;;;;;;;9.90;3.50;;;-7.50;99.90;;;;;;4814049;29;20062;-92
2021/12/26 06:27:55;;;;;;;9.83;3.97;;;-7.50;99.90;;;;;;4831702;29;20063;-92
2021/12/26 06:30:24;;;;;;;10.10;4.00;;;-6.00;99.90;;;;;;4818388;29;20060;-92
2021/12/26 06:32:59;;;;;;;10.43;4.10;;;-7.40;99.90;;;;;;4824653;29;20114;-92
2021/12/26 06:36:00;;;;;;;8.93;3.20;;;-6.20;99.90;;;;;;4808646;29;20046;-92
2021/12/26 06:41:38;;;;;;;;;;;;;;;;;;;;;
2021/12/26 06:48:12;;;;;;;;;;;;;;;;;;;;;
2021/12/26 06:54:30;;;;;;;10.17;3.90;;;-7.80;99.90;;;;;;4770681;30;20047;-92
2021/12/26 06:57:33;;;;;;;9.80;3.57;;;-7.90;99.90;;;;;;4769513;30;20205;-91
2021/12/26 07:00:38;;;;;;;10.47;3.67;;;-8.80;99.90;;;;;;4770567;30;20133;-92
2021/12/26 07:07:28;;;;;;;11.23;3.93;;;-8.20;99.90;;;;;;4862554;29;20066;-94
2021/12/26 07:13:31;;;;;;;10.87;4.43;;;-7.50;99.90;;;;;;4872100;23;20057;-92
2021/12/26 07:16:29;;;;;;;10.63;4.37;;;-7.90;99.90;;;;;;4864613;29;20101;-94
2021/12/26 07:49:33;;;;;;;10.77;4.53;;;-8.50;99.90;;;;;;4880184;29;20118;-91
2021/12/26 08:01:34;;;;;;;11.23;4.60;;;-6.40;99.90;;;;;;4863241;29;20089;-90
2021/12/26 08:04:01;;;;;;;11.47;4.90;;;-7.80;99.90;;;;;;4863569;29;20052;-90
2021/12/26 08:06:31;;;;;;;12.13;5.00;;;-7.90;99.90;;;;;;4863487;29;20053;-90
2021/12/26 08:08:57;;;;;;;10.97;4.60;;;-7.50;99.90;;;;;;4863772;29;20049;-90
2021/12/26 08:11:23;;;;;;;11.97;5.27;;;-7.60;99.90;;;;;;4864032;29;20523;-90
2021/12/26 08:13:49;;;;;;;10.60;4.30;;;-7.00;99.90;;;;;;4879481;29;20037;-90
2021/12/26 08:16:18;;;;;;;12.13;5.20;;;-5.60;99.90;;;;;;4863756;29;20438;-90
2021/12/26 08:18:44;;;;;;;13.53;4.97;;;-7.50;99.90;;;;;;4881370;29;20078;-87
2021/12/26 08:21:12;;;;;;;12.87;5.17;;;-7.50;99.90;;;;;;4880242;29;20049;-89
2021/12/26 08:23:38;;;;;;;10.23;4.50;;;-6.10;99.90;;;;;;4864013;29;20049;-90
2021/12/26 08:26:04;;;;;;;11.90;4.87;;;-6.60;99.90;;;;;;4863612;29;20104;-90
2021/12/26 08:28:30;;;;;;;12.33;5.17;;;-7.30;99.90;;;;;;4862658;29;20185;-87
2021/12/26 08:30:56;;;;;;;12.93;4.70;;;-6.20;99.90;;;;;;4863549;29;20132;-87
2021/12/26 08:33:27;;;;;;;12.17;5.43;;;-7.30;99.90;;;;;;4880384;29;20049;-87
2021/12/26 08:35:56;;;;;;;12.70;5.30;;;-7.40;99.90;;;;;;4862430;29;20206;-88
2021/12/26 08:38:28;;;;;;;13.07;5.07;;;-7.20;99.90;;;;;;4878638;29;20090;-88
2021/12/26 08:41:00;;;;;;;12.00;5.17;;;-6.40;99.90;;;;;;4871277;29;20049;-88
2021/12/26 08:43:29;;;;;;;11.63;5.17;;;-6.80;99.90;;;;;;4881817;29;20047;-88
2021/12/26 08:45:55;;;;;;;13.53;5.20;;;-7.20;99.90;;;;;;4886155;29;20084;-87
2021/12/26 08:48:21;;;;;;;12.37;5.23;;;-7.10;99.90;;;;;;4888273;29;20417;-87
2021/12/26 08:50:55;;;;;;;11.90;4.77;;;-6.90;99.90;;;;;;4863432;29;20053;-88
2021/12/26 08:53:24;;;;;;;10.70;4.90;;;-7.30;99.90;;;;;;4880316;29;20049;-88
2021/12/26 08:55:50;;;;;;;12.43;4.87;;;-6.80;99.90;;;;;;4862578;29;20049;-88
2021/12/26 08:59:06;;;;;;;12.20;5.13;;;-6.60;99.90;;;;;;4862937;29;20053;-88
2021/12/26 09:01:32;;;;;;;12.60;5.13;;;-5.10;99.90;;;;;;4879182;29;20061;-88
2021/12/26 09:03:58;;;;;;;15.10;4.87;;;-7.00;99.90;;;;;;4862165;29;20477;-88
2021/12/26 09:06:23;;;;;;;16.33;5.17;;;-6.50;99.90;;;;;;4863235;29;20040;-88
2021/12/26 09:08:50;;;;;;;13.13;5.23;;;-6.50;99.90;;;;;;4863066;29;20049;-88
2021/12/26 09:11:16;;;;;;;13.00;5.47;;;-6.20;99.90;;;;;;4862675;29;20056;-88
2021/12/26 09:13:43;;;;;;;11.27;5.07;;;-6.50;99.90;;;;;;4886122;23;20049;-88
2021/12/26 09:16:08;;;;;;;13.77;4.90;;;-5.00;99.90;;;;;;4866482;23;20082;-88
2021/12/26 09:18:34;;;;;;;11.07;5.07;;;-6.50;99.90;;;;;;4839935;29;20100;-88
2021/12/26 09:21:06;;;;;;;11.77;5.13;;;-6.30;99.90;;;;;;4826029;29;20213;-88
2021/12/26 09:23:31;;;;;;;12.73;5.50;;;-5.00;99.90;;;;;;4836578;29;20054;-87
2021/12/26 09:25:57;;;;;;;12.87;5.23;;;-6.20;99.90;;;;;;4844367;29;20029;-88
2021/12/26 09:28:23;;;;;;;11.93;5.03;;;-6.40;99.90;;;;;;4840406;29;20414;-88
2021/12/26 09:30:48;;;;;;;12.37;5.57;;;-6.20;99.90;;;;;;4826483;29;20045;-88
2021/12/26 09:33:19;;;;;;;11.57;4.83;;;-6.10;99.90;;;;;;4825961;29;20141;-88
2021/12/26 09:36:00;;;;;;;14.37;5.47;;;-5.90;99.90;;;;;;4818697;29;20058;-88
2021/12/26 09:38:26;;;;;;;10.90;5.23;;;-5.80;99.90;;;;;;4825646;29;20045;-88
2021/12/26 09:40:56;;;;;;;13.60;5.10;;;-5.90;99.90;;;;;;4825172;29;20057;-88
2021/12/26 09:43:22;;;;;;;10.90;4.90;;;-4.50;99.90;;;;;;4825978;29;20046;-88
2021/12/26 09:46:03;;;;;;;13.07;5.30;;;-5.90;99.90;;;;;;4963068;23;20108;-87
2021/12/26 09:48:35;;;;;;;;;;;-5.50;99.90;;;;;;4863057;29;20099;-88
2021/12/26 09:51:04;;;;;;;11.80;4.97;;;-5.50;99.90;;;;;;4862096;29;19924;-87
2021/12/26 09:53:40;;;;;;;12.40;5.33;;;-5.60;99.90;;;;;;4862174;29;20041;-88
2021/12/26 09:56:07;;;;;;;11.97;4.97;;;-5.70;99.90;;;;;;4862153;29;20048;-87
2021/12/26 09:58:49;;;;;;;13.83;5.30;;;-4.00;99.90;;;;;;4861852;29;20477;-87
2021/12/26 10:01:31;;;;;;;10.67;4.80;;;-5.40;99.90;;;;;;4862386;29;20044;-87
2021/12/26 10:04:14;;;;;;;11.60;4.63;;;-5.30;99.90;;;;;;4861984;29;20120;-88
2021/12/26 10:06:40;;;;;;;13.23;5.27;;;-5.30;99.90;;;;;;4861743;29;20048;-87
2021/12/26 10:09:10;;;;;;;12.33;5.10;;;-5.20;99.90;;;;;;4862078;29;20049;-87
2021/12/26 10:11:59;;;;;;;11.70;4.73;;;-4.80;99.90;;;;;;4879446;29;20045;-87
2021/12/26 10:14:31;;;;;;;10.93;4.70;;;-4.80;99.90;;;;;;4861822;29;20405;-87
2021/12/26 10:17:09;;;;;;;14.40;5.53;;;-5.00;99.90;;;;;;4861583;29;20047;-87
2021/12/26 10:19:52;;;;;;;11.03;4.93;;;-3.60;99.90;;;;;;4860892;29;20084;-87
2021/12/26 10:22:26;;;;;;;11.13;4.53;;;-4.60;99.90;;;;;;4862114;29;20508;-87
2021/12/26 10:24:54;;;;;;;11.73;5.27;;;-4.90;99.90;;;;;;4878468;29;20060;-87
2021/12/26 10:27:23;;;;;;;12.33;4.80;;;-4.30;99.90;;;;;;4877751;29;20073;-87
2021/12/26 10:29:54;;;;;;;12.77;5.23;;;-4.40;99.90;;;;;;4861842;29;20056;-87
2021/12/26 10:32:32;;;;;;;12.23;5.10;;;-3.10;99.90;;;;;;4861829;29;20045;-87
2021/12/26 10:35:09;;;;;;;12.30;4.60;;;-4.10;99.90;;;;;;4860557;29;20457;-87
2021/12/26 10:37:38;;;;;;;12.47;5.00;;;-3.90;99.90;;;;;;4861864;29;20049;-87
2021/12/26 10:40:11;;;;;;;12.13;4.73;;;-3.80;99.90;;;;;;4878121;29;20070;-87
2021/12/26 10:42:40;;;;;;;11.98;4.93;;;-3.70;99.90;;;;;;4861380;29;20105;-87
2021/12/26 10:45:11;;;;;;;10.73;4.77;;;-2.50;99.90;;;;;;4863012;29;20060;-87
2021/12/26 10:47:39;;;;;;;11.03;5.40;;;-3.40;99.90;;;;;;4881625;29;20499;-86
2021/12/26 10:50:14;;;;;;;11.77;5.00;;;-3.30;99.90;;;;;;4880949;29;20045;-86
2021/12/26 10:52:55;;;;;;;11.87;5.40;;;-2.50;99.90;;;;;;4865125;29;20053;-87
2021/12/26 10:55:39;;;;;;;11.70;5.17;;;-3.00;99.90;;;;;;4877197;29;20057;-87
2021/12/26 10:58:18;;;;;;;11.30;4.87;;;-2.80;99.90;;;;;;4890813;29;20059;-87
2021/12/26 11:00:46;;;;;;;11.73;5.03;;;-2.60;99.90;;;;;;4865071;29;20049;-87
2021/12/26 11:03:23;;;;;;;11.27;4.63;;;-2.10;99.90;;;;;;4864257;29;20049;-87
2021/12/26 11:09:17;;;;;;;12.50;5.13;;;-1.20;99.90;;;;;;4880518;29;20068;-87
2021/12/26 11:12:07;;;;;;;11.10;4.97;;;-1.30;99.90;;;;;;4880819;29;20052;-87
2021/12/26 11:15:06;;;;;;;11.80;5.30;;;-2.60;99.90;;;;;;4864085;29;20093;-87
2021/12/26 11:17:43;;;;;;;10.50;5.00;;;-2.30;99.90;;;;;;4880180;29;20088;-87
2021/12/26 11:20:21;;;;;;;10.97;5.03;;;-2.40;99.90;;;;;;4864038;29;20060;-87
2021/12/26 11:22:47;;;;;;;11.73;5.20;;;-2.40;99.90;;;;;;4863616;29;20098;-87
2021/12/26 11:25:19;;;;;;;12.50;5.13;;;-2.60;99.90;;;;;;4870418;23;20148;-87
2021/12/26 11:27:48;;;;;;;11.17;5.10;;;-2.40;99.90;;;;;;4863817;29;20053;-86
2021/12/26 11:30:20;;;;;;;12.23;5.13;;;-2.70;99.90;;;;;;4863355;29;20049;-87
2021/12/26 11:32:49;;;;;;;10.50;4.87;;;-2.40;99.90;;;;;;4863683;29;20056;-86
2021/12/26 11:35:15;;;;;;;12.27;5.17;;;-1.20;99.90;;;;;;4863790;29;20041;-87
2021/12/26 11:37:47;;;;;;;11.47;4.90;;;-1.70;99.90;;;;;;4879243;29;20502;-87
2021/12/26 11:40:21;;;;;;;10.73;4.80;;;-2.30;99.90;;;;;;4864311;29;20053;-88
2021/12/26 11:43:38;;;;;;;11.30;5.15;;;-1.10;99.90;;;;;;4863977;29;20045;-87
2021/12/26 11:46:39;;;;;;;10.83;5.13;;;-1.70;99.90;;;;;;4855960;29;20053;-87
2021/12/26 11:49:42;;;;;;;11.03;4.77;;;-1.10;99.90;;;;;;4863611;29;20057;-87
2021/12/26 11:52:30;;;;;;;9.97;4.70;;;-1.20;99.90;;;;;;4863682;29;20049;-87
2021/12/26 11:55:34;;;;;;;10.70;4.63;;;-1.30;99.90;;;;;;4863884;29;20055;-87
2021/12/26 11:58:35;;;;;;;11.77;5.22;;;-1.40;99.90;;;;;;4862286;29;20061;-86
2021/12/26 12:01:14;;;;;;;12.00;5.67;;;-1.40;99.90;;;;;;4880004;29;20454;-87
2021/12/26 12:03:40;;;;;;;11.87;5.17;;;-0.30;99.90;;;;;;4880267;29;20529;-87
2021/12/26 12:06:24;;;;;;;11.27;5.17;;;-1.50;99.90;;;;;;4862911;29;20045;-88
2021/12/26 12:08:50;;;;;;;12.32;5.22;;;-1.60;99.90;;;;;;4863666;29;20049;-87
2021/12/26 12:11:15;;;;;;;11.67;5.20;;;-1.70;99.90;;;;;;4863739;29;20449;-87
2021/12/26 12:13:53;;;;;;;11.07;5.00;;;-1.70;99.90;;;;;;4862438;29;20074;-87
2021/12/26 12:16:22;;;;;;;10.83;4.90;;;-1.50;99.90;;;;;;4863893;29;20433;-87
2021/12/26 12:18:47;;;;;;;10.77;4.87;;;-1.60;99.90;;;;;;4879857;29;20057;-87
2021/12/26 12:21:19;;;;;;;11.17;5.00;;;-1.30;99.90;;;;;;4863018;29;20045;-87
2021/12/26 12:24:09;;;;;;;10.60;4.80;;;-1.80;99.90;;;;;;4863176;29;20493;-87
2021/12/26 12:26:55;;;;;;;12.83;5.20;;;-1.60;99.90;;;;;;4875249;29;20044;-87
2021/12/26 12:29:29;;;;;;;10.90;5.17;;;-1.60;99.90;;;;;;4864466;29;20513;-87
2021/12/26 12:32:11;;;;;;;11.57;5.00;;;-1.50;99.90;;;;;;4863198;29;20083;-87
2021/12/26 12:35:05;;;;;;;10.77;4.90;;;-1.50;99.90;;;;;;4862837;29;20523;-87
2021/12/26 12:37:41;;;;;;;11.47;5.13;;;-1.40;99.90;;;;;;4863440;29;20060;-87
2021/12/26 12:40:12;;;;;;;12.27;5.50;;;-1.40;99.90;;;;;;4863105;29;20037;-87
2021/12/26 12:42:41;;;;;;;12.20;5.33;;;-1.30;99.90;;;;;;4863262;29;20049;-87
2021/12/26 12:45:09;;;;;;;11.73;5.00;;;-1.20;99.90;;;;;;4863553;29;20044;-87
2021/12/26 12:47:35;;;;;;;10.97;5.07;;;-0.80;99.90;;;;;;4862448;29;20052;-87
2021/12/26 12:50:03;;;;;;;11.67;5.43;;;-0.90;99.90;;;;;;4862500;29;20049;-87
2021/12/26 12:52:45;;;;;;;10.80;5.10;;;0.50;99.90;;;;;;4862798;29;20084;-87
2021/12/26 12:55:13;;;;;;;11.03;5.30;;;-0.80;99.90;;;;;;4862782;29;20055;-87
2021/12/26 12:57:42;;;;;;;12.27;5.60;;;-0.70;99.90;;;;;;4863193;29;20053;-88
2021/12/26 13:00:23;;;;;;;12.03;5.40;;;0.30;99.90;;;;;;4863192;29;20045;-87
2021/12/26 13:02:50;;;;;;;11.37;5.50;;;-0.70;99.90;;;;;;4861582;29;20132;-87
2021/12/26 13:05:27;;;;;;;11.77;5.40;;;-0.60;99.90;;;;;;4862878;29;20056;-87
2021/12/26 13:07:58;;;;;;;12.23;5.70;;;-0.70;99.90;;;;;;4878630;29;20052;-87
2021/12/26 13:10:24;;;;;;;13.30;5.63;;;-0.60;99.90;;;;;;4878534;29;20064;-87
2021/12/26 13:12:49;;;;;;;11.77;5.50;;;-0.50;99.90;;;;;;4862445;29;20433;-87
2021/12/26 13:15:16;;;;;;;11.40;5.57;;;-0.50;99.90;;;;;;4863024;29;20060;-88
2021/12/26 13:17:45;;;;;;;13.07;5.93;;;-0.50;99.90;;;;;;4861418;29;20565;-87
2021/12/26 13:20:23;;;;;;;11.87;5.60;;;-0.40;99.90;;;;;;4862453;29;20056;-88
2021/12/26 13:22:55;;;;;;;11.80;5.20;;;-0.60;99.90;;;;;;4861501;29;20061;-87
2021/12/26 13:25:42;;;;;;;11.60;5.40;;;-0.50;99.90;;;;;;4878669;29;20056;-88
2021/12/26 13:28:10;;;;;;;11.03;5.40;;;-0.40;99.90;;;;;;4862432;29;20088;-88
2021/12/26 13:30:39;;;;;;;13.63;5.57;;;-0.40;99.90;;;;;;4862166;29;20067;-88
2021/12/26 13:33:17;;;;;;;11.27;5.57;;;-0.30;99.90;;;;;;4878127;29;20049;-87
2021/12/26 13:35:43;;;;;;;13.07;5.80;;;-0.70;99.90;;;;;;4870025;29;20069;-89
2021/12/26 13:38:14;;;;;;;11.43;5.67;;;-0.80;99.90;;;;;;4866736;29;20078;-89
2021/12/26 13:40:45;;;;;;;11.70;5.77;;;-0.80;99.90;;;;;;4859412;29;20549;-89
2021/12/26 13:43:11;;;;;;;12.33;6.00;;;-0.50;99.90;;;;;;4852109;29;20077;-88
2021/12/26 13:45:42;;;;;;;11.20;5.57;;;-0.60;99.90;;;;;;4850115;29;20053;-87
2021/12/26 13:48:34;;;;;;;13.20;5.73;;;-0.50;99.90;;;;;;4851352;29;20501;-88
2021/12/26 13:51:38;;;;;;;12.67;5.93;;;-0.50;99.90;;;;;;4856691;29;20061;-88
2021/12/26 13:54:16;;;;;;;13.18;5.95;;;-0.60;99.90;;;;;;4846602;29;20053;-88
2021/12/26 13:56:47;;;;;;;11.70;5.40;;;-0.90;99.90;;;;;;4868491;29;20084;-88
2021/12/26 13:59:45;;;;;;;11.33;5.63;;;-1.00;99.90;;;;;;4849104;29;20092;-87
2021/12/26 14:02:43;;;;;;;12.77;5.80;;;-1.10;99.90;;;;;;4851254;29;20045;-88
2021/12/26 14:05:13;;;;;;;11.23;5.27;;;-1.10;99.90;;;;;;4851608;29;20523;-86
2021/12/26 14:07:45;;;;;;;12.55;5.78;;;-1.30;99.90;;;;;;4847558;29;20053;-87
2021/12/26 14:10:19;;;;;;;13.57;6.20;;;-0.10;99.90;;;;;;4865073;29;20057;-87
2021/12/26 14:12:58;;;;;;;12.73;6.10;;;-1.30;99.90;;;;;;4849944;29;20382;-88
2021/12/26 14:15:31;;;;;;;11.83;5.77;;;-1.10;99.90;;;;;;4849992;29;20093;-88
2021/12/26 14:18:26;;;;;;;13.00;6.07;;;-1.20;99.90;;;;;;4863950;29;20049;-88
2021/12/26 14:20:59;;;;;;;14.83;6.20;;;-1.10;99.90;;;;;;4848201;29;20489;-88
2021/12/26 14:23:43;;;;;;;13.27;6.32;;;-0.50;99.90;;;;;;4851916;29;20068;-88
2021/12/26 14:26:39;;;;;;;11.77;5.83;;;-1.40;99.90;;;;;;4852274;29;20398;-87
2021/12/26 14:29:24;;;;;;;12.90;5.80;;;-1.10;99.90;;;;;;4846348;29;20510;-89
2021/12/26 14:31:52;;;;;;;12.60;5.70;;;-1.90;99.90;;;;;;4849524;29;20452;-86
2021/12/26 14:34:28;;;;;;;12.27;5.63;;;-1.30;99.90;;;;;;4832505;29;20487;-86
2021/12/26 14:36:58;;;;;;;11.80;5.60;;;-1.20;99.90;;;;;;4851741;29;20057;-87
2021/12/26 14:39:35;;;;;;;13.43;6.20;;;-1.40;99.90;;;;;;4832266;29;20057;-87
2021/12/26 14:42:05;;;;;;;12.93;6.07;;;-1.20;99.90;;;;;;4830543;29;20057;-87
2021/12/26 14:44:32;;;;;;;12.80;5.60;;;-1.30;99.90;;;;;;4834003;29;20402;-87
2021/12/26 14:47:18;;;;;;;12.60;5.90;;;-1.40;99.90;;;;;;4831133;29;20106;-88
2021/12/26 14:49:54;;;;;;;13.20;6.17;;;-1.30;99.90;;;;;;4834155;29;20049;-87
2021/12/26 14:52:28;;;;;;;11.60;5.70;;;0.00;99.90;;;;;;4848006;29;20129;-86
2021/12/26 14:54:59;;;;;;;11.65;5.75;;;-2.30;99.90;;;;;;4849510;29;20056;-86
2021/12/26 14:57:35;;;;;;;12.50;5.50;;;-1.70;99.90;;;;;;4847469;29;20054;-86
2021/12/26 15:00:26;;;;;;;13.00;5.67;;;-0.90;99.90;;;;;;4832186;29;20050;-86
2021/12/26 15:02:58;;;;;;;12.27;5.70;;;-1.60;99.90;;;;;;4831391;29;20049;-87
2021/12/26 15:05:35;;;;;;;12.57;5.97;;;-1.90;99.90;;;;;;4833848;29;20088;-87
2021/12/26 15:08:12;;;;;;;11.57;5.53;;;-1.90;99.90;;;;;;4834705;29;20101;-87
2021/12/26 15:10:46;;;;;;;13.13;6.20;;;-1.90;99.90;;;;;;4835460;29;20096;-87
2021/12/26 15:13:13;;;;;;;;;;;-1.50;99.90;;;;;;4848070;29;20379;-87
2021/12/26 15:16:00;;;;;;;12.17;5.67;;;-2.00;99.90;;;;;;4841784;29;19928;-86
2021/12/26 15:18:27;;;;;;;12.70;6.03;;;-1.10;99.90;;;;;;4830880;29;20061;-86
2021/12/26 15:21:08;;;;;;;12.67;6.27;;;-1.90;99.90;;;;;;4831489;29;20113;-87
2021/12/26 15:23:36;;;;;;;12.50;5.97;;;-1.90;99.90;;;;;;4832568;29;20060;-87
2021/12/26 15:26:11;;;;;;;13.70;6.00;;;-1.90;99.90;;;;;;4868918;29;20053;-86
2021/12/26 15:28:43;;;;;;;11.73;5.80;;;-1.90;99.90;;;;;;4868509;29;20057;-86
2021/12/26 15:31:21;;;;;;;13.03;6.13;;;-1.90;99.90;;;;;;4850769;29;20098;-86
2021/12/26 15:33:53;;;;;;;14.00;6.03;;;-1.90;99.90;;;;;;4876274;29;20053;-86
2021/12/26 15:36:24;;;;;;;13.60;5.90;;;-1.50;99.90;;;;;;4864054;29;20328;-86
2021/12/26 15:39:03;;;;;;;11.63;5.40;;;-1.90;99.90;;;;;;4863798;29;20049;-86
2021/12/26 15:41:32;;;;;;;13.17;5.63;;;-2.00;99.90;;;;;;4880296;29;20049;-86
2021/12/26 15:43:59;;;;;;;13.87;6.30;;;-1.90;99.90;;;;;;4862899;29;20049;-86
2021/12/26 15:46:27;;;;;;;12.30;5.90;;;-2.00;99.90;;;;;;4864040;29;20434;-86
2021/12/26 15:48:53;;;;;;;15.37;7.00;;;-1.40;99.90;;;;;;4863713;29;20099;-86
2021/12/26 15:51:26;;;;;;;15.47;7.70;;;-0.80;99.90;;;;;;4862883;29;20057;-86
2021/12/26 15:54:12;;;;;;;17.93;8.60;;;-1.40;99.90;;;;;;4863364;29;20048;-91
2021/12/26 15:57:05;;;;;;;16.40;7.65;;;-2.00;99.90;;;;;;4865953;29;20079;-90
2021/12/26 15:59:31;;;;;;;13.27;6.27;;;-0.60;99.90;;;;;;4864044;29;20049;-91
2021/12/26 16:02:02;;;;;;;14.23;6.43;;;-2.40;99.90;;;;;;4863411;29;20511;-90
2021/12/26 16:04:28;;;;;;;12.53;6.03;;;-1.20;99.90;;;;;;4863346;29;20061;-92
2021/12/26 16:06:55;;;;;;;12.33;5.70;;;-1.80;99.90;;;;;;4863549;29;20508;-91
2021/12/26 16:09:21;;;;;;;13.53;6.60;;;-2.30;99.90;;;;;;4863557;29;20069;-92
2021/12/26 16:11:48;;;;;;;13.70;6.30;;;-1.90;99.90;;;;;;4863042;29;20052;-88
2021/12/26 16:14:14;;;;;;;12.63;6.30;;;-2.30;99.90;;;;;;4864914;29;20116;-87
2021/12/26 16:16:45;;;;;;;16.10;7.50;;;-2.30;99.90;;;;;;4881448;29;20067;-89
2021/12/26 16:19:37;;;;;;;12.87;6.77;;;-2.30;99.90;;;;;;4863597;29;20049;-87
2021/12/26 16:22:03;;;;;;;15.33;7.30;;;-2.40;99.90;;;;;;4807160;29;20097;-90
2021/12/26 16:24:29;;;;;;;14.47;6.10;;;-1.90;99.90;;;;;;4861351;29;20474;-89
2021/12/26 16:26:55;;;;;;;13.87;6.50;;;-2.30;99.90;;;;;;4865240;29;20084;-87
2021/12/26 16:29:31;;;;;;;14.37;6.77;;;-2.30;99.90;;;;;;4866664;29;20390;-90
2021/12/26 16:31:57;;;;;;;15.33;7.57;;;-1.90;99.90;;;;;;4863655;29;20166;-89
2021/12/26 16:34:26;;;;;;;14.33;6.50;;;-2.30;99.90;;;;;;4862682;29;20045;-90
2021/12/26 16:36:55;;;;;;;22.20;10.87;;;-2.50;99.90;;;;;;4865435;29;20143;-91
2021/12/26 16:39:32;;;;;;;14.93;6.73;;;-0.90;99.90;;;;;;4863041;29;20104;-90
2021/12/26 16:41:58;;;;;;;15.07;7.47;;;-2.50;99.90;;;;;;4862752;29;20469;-89
2021/12/26 16:44:33;;;;;;;15.03;7.17;;;-1.10;99.90;;;;;;4862917;29;20509;-90
2021/12/26 16:47:02;;;;;;;15.60;6.87;;;-2.40;99.90;;;;;;4861701;29;20132;-90
2021/12/26 16:49:28;;;;;;;15.40;7.43;;;-2.20;99.90;;;;;;4863056;29;20053;-89
2021/12/26 16:52:22;;;;;;;15.73;8.10;;;-2.20;99.90;;;;;;4862323;29;20094;-90
2021/12/26 16:54:50;;;;;;;15.10;7.47;;;-1.80;99.90;;;;;;4869703;29;20044;-89
2021/12/26 16:57:16;;;;;;;16.57;7.80;;;-2.30;99.90;;;;;;4879542;29;20041;-88
2021/12/26 16:59:48;;;;;;;15.83;7.40;;;-2.10;99.90;;;;;;4865983;29;20132;-89
2021/12/26 17:02:20;;;;;;;16.23;7.90;;;-2.20;99.90;;;;;;4862775;29;20096;-90
2021/12/26 17:04:47;;;;;;;15.37;7.40;;;-2.20;99.90;;;;;;4862641;29;20155;-88
2021/12/26 17:07:13;;;;;;;15.63;7.70;;;-2.20;99.90;;;;;;4863185;29;20193;-89
2021/12/26 17:09:44;;;;;;;13.70;7.00;;;-2.30;99.90;;;;;;4861813;29;20127;-89
2021/12/26 17:12:22;;;;;;;15.60;7.73;;;-2.30;99.90;;;;;;4862890;29;20053;-88
2021/12/26 17:14:49;;;;;;;15.73;7.93;;;-2.40;99.90;;;;;;4862429;29;20124;-87
2021/12/26 17:17:15;;;;;;;14.47;7.47;;;-1.60;99.90;;;;;;4870712;29;20168;-87
2021/12/26 17:19:47;;;;;;;18.63;8.47;;;-2.20;99.90;;;;;;4853829;29;20045;-91
2021/12/26 17:22:31;;;;;;;14.83;7.80;;;-2.20;99.90;;;;;;4853089;29;20050;-89
2021/12/26 17:24:57;;;;;;;16.98;8.20;;;-1.90;99.90;;;;;;4853862;29;20109;-90
2021/12/26 17:27:28;;;;;;;16.77;8.33;;;-1.90;99.90;;;;;;4853556;29;20173;-90
2021/12/26 17:30:00;;;;;;;15.53;7.87;;;-1.50;99.90;;;;;;4853175;29;20512;-90
2021/12/26 17:32:26;;;;;;;15.93;7.90;;;-2.10;99.90;;;;;;4853882;29;20382;-90
2021/12/26 17:34:52;;;;;;;15.57;8.07;;;-0.50;99.90;;;;;;4853812;29;20091;-90
2021/12/26 17:37:18;;;;;;;16.10;8.53;;;-1.20;99.90;;;;;;4852952;29;20501;-89
2021/12/26 17:39:47;;;;;;;16.53;8.57;;;-1.60;99.90;;;;;;4852026;29;20083;-89
2021/12/26 17:42:17;;;;;;;17.27;8.83;;;-2.10;99.90;;;;;;4852200;29;20060;-89
2021/12/26 17:44:52;;;;;;;18.30;8.73;;;-1.90;99.90;;;;;;4851298;29;20049;-89
2021/12/26 17:47:20;;;;;;;17.37;9.03;;;-2.00;99.90;;;;;;4868514;29;20038;-89
2021/12/26 17:49:46;;;;;;;17.30;8.80;;;-2.00;99.90;;;;;;4852048;29;20052;-90
2021/12/26 17:52:12;;;;;;;15.23;8.07;;;-2.10;99.90;;;;;;4859800;29;20049;-89
2021/12/26 17:54:41;;;;;;;17.20;8.87;;;-2.10;99.90;;;;;;4864068;29;20052;-90
2021/12/26 17:57:06;;;;;;;18.20;9.07;;;-0.50;99.90;;;;;;4865201;29;20053;-88
2021/12/26 17:59:35;;;;;;;16.47;8.63;;;-2.00;99.90;;;;;;4865991;29;20060;-90
2021/12/26 18:02:13;;;;;;;24.33;11.30;;;-1.80;99.90;;;;;;4865404;29;20056;-90
2021/12/26 18:04:45;;;;;;;18.03;9.97;;;-1.60;99.90;;;;;;4865073;29;20406;-89
2021/12/26 18:07:14;;;;;;;19.73;9.93;;;-2.10;99.90;;;;;;4866171;29;20045;-89
2021/12/26 18:09:46;;;;;;;17.67;9.60;;;-1.80;99.90;;;;;;4865827;29;20053;-89